sensor_id;sensor_type;location;lat;lon;timestamp;P1;durP1;ratioP1;P2;durP2;ratioP2
8159;SDS011;27404;52.398;9.646;2024-02-21T00:00:01;33.47;;;15.70;;
8159;SDS011;27404;52.398;9.646;2024-02-21T00:02:27;30.27;;;15.03;;
8159;SDS011;27404;52.398;9.646;2024-02-21T00:04:52;24.80;;;14.87;;
8159;SDS011;27404;52.398;9.646;2024-02-21T00:07:17;30.23;;;15.07;;
8159;SDS011;27404;52.398;9.646;2024-02-21T00:09:43;27.50;;;14.93;;
8159;SDS011;27404;52.398;9.646;2024-02-21T00:12:08;30.47;;;15.80;;
8159;SDS011;27404;52.398;9.646;2024-02-21T00:14:34;31.00;;;14.37;;
8159;SDS011;27404;52.398;9.646;2024-02-21T00:16:59;30.20;;;14.73;;
8159;SDS011;27404;52.398;9.646;2024-02-21T00:19:25;32.47;;;15.37;;
8159;SDS011;27404;52.398;9.646;2024-02-21T00:21:50;31.13;;;16.00;;
8159;SDS011;27404;52.398;9.646;2024-02-21T00:24:15;32.93;;;15.30;;
8159;SDS011;27404;52.398;9.646;2024-02-21T00:26:41;31.07;;;15.30;;
8159;SDS011;27404;52.398;9.646;2024-02-21T00:29:07;26.20;;;15.00;;
8159;SDS011;27404;52.398;9.646;2024-02-21T00:31:32;31.73;;;16.97;;
8159;SDS011;27404;52.398;9.646;2024-02-21T00:33:57;27.53;;;15.13;;
8159;SDS011;27404;52.398;9.646;2024-02-21T00:36:23;31.17;;;14.97;;
8159;SDS011;27404;52.398;9.646;2024-02-21T00:38:48;33.20;;;15.27;;
8159;SDS011;27404;52.398;9.646;2024-02-21T00:41:14;29.77;;;15.73;;
8159;SDS011;27404;52.398;9.646;2024-02-21T00:43:41;24.50;;;14.90;;
8159;SDS011;27404;52.398;9.646;2024-02-21T00:46:06;30.43;;;15.40;;
8159;SDS011;27404;52.398;9.646;2024-02-21T00:48:32;31.17;;;16.20;;
8159;SDS011;27404;52.398;9.646;2024-02-21T00:50:59;28.93;;;14.77;;
8159;SDS011;27404;52.398;9.646;2024-02-21T00:53:24;34.80;;;16.60;;
8159;SDS011;27404;52.398;9.646;2024-02-21T00:55:49;32.83;;;16.40;;
8159;SDS011;27404;52.398;9.646;2024-02-21T00:58:15;37.73;;;16.60;;
8159;SDS011;27404;52.398;9.646;2024-02-21T01:00:40;35.33;;;16.10;;
8159;SDS011;27404;52.398;9.646;2024-02-21T01:03:06;28.50;;;14.73;;
8159;SDS011;27404;52.398;9.646;2024-02-21T01:05:31;30.13;;;15.60;;
8159;SDS011;27404;52.398;9.646;2024-02-21T01:07:57;27.77;;;15.60;;
8159;SDS011;27404;52.398;9.646;2024-02-21T01:10:22;29.33;;;14.83;;
8159;SDS011;27404;52.398;9.646;2024-02-21T01:12:48;28.47;;;15.37;;
8159;SDS011;27404;52.398;9.646;2024-02-21T01:15:13;32.13;;;15.97;;
8159;SDS011;27404;52.398;9.646;2024-02-21T01:17:38;32.83;;;15.60;;
8159;SDS011;27404;52.398;9.646;2024-02-21T01:20:05;26.33;;;13.93;;
8159;SDS011;27404;52.398;9.646;2024-02-21T01:22:32;29.17;;;14.70;;
8159;SDS011;27404;52.398;9.646;2024-02-21T01:24:57;30.73;;;15.40;;
8159;SDS011;27404;52.398;9.646;2024-02-21T01:27:23;36.40;;;16.33;;
8159;SDS011;27404;52.398;9.646;2024-02-21T01:29:48;32.43;;;17.07;;
8159;SDS011;27404;52.398;9.646;2024-02-21T01:32:15;31.10;;;15.93;;
8159;SDS011;27404;52.398;9.646;2024-02-21T01:34:41;34.00;;;15.87;;
8159;SDS011;27404;52.398;9.646;2024-02-21T01:37:06;30.57;;;16.13;;
8159;SDS011;27404;52.398;9.646;2024-02-21T01:39:32;33.70;;;16.73;;
8159;SDS011;27404;52.398;9.646;2024-02-21T01:41:58;37.07;;;16.33;;
8159;SDS011;27404;52.398;9.646;2024-02-21T01:44:24;30.37;;;16.47;;
8159;SDS011;27404;52.398;9.646;2024-02-21T01:46:50;32.53;;;16.67;;
8159;SDS011;27404;52.398;9.646;2024-02-21T01:49:17;35.30;;;16.10;;
8159;SDS011;27404;52.398;9.646;2024-02-21T01:51:42;32.67;;;15.50;;
8159;SDS011;27404;52.398;9.646;2024-02-21T01:54:08;27.97;;;16.10;;
8159;SDS011;27404;52.398;9.646;2024-02-21T01:56:35;30.33;;;15.50;;
8159;SDS011;27404;52.398;9.646;2024-02-21T01:59:00;26.33;;;15.07;;
8159;SDS011;27404;52.398;9.646;2024-02-21T02:01:26;30.90;;;15.40;;
8159;SDS011;27404;52.398;9.646;2024-02-21T02:03:52;30.33;;;15.97;;
8159;SDS011;27404;52.398;9.646;2024-02-21T02:06:17;26.23;;;15.17;;
8159;SDS011;27404;52.398;9.646;2024-02-21T02:08:43;27.13;;;15.43;;
8159;SDS011;27404;52.398;9.646;2024-02-21T02:11:09;28.80;;;15.00;;
8159;SDS011;27404;52.398;9.646;2024-02-21T02:13:35;29.93;;;15.60;;
8159;SDS011;27404;52.398;9.646;2024-02-21T02:16:00;31.93;;;15.17;;
8159;SDS011;27404;52.398;9.646;2024-02-21T02:18:26;25.37;;;14.80;;
8159;SDS011;27404;52.398;9.646;2024-02-21T02:20:51;30.37;;;14.73;;
8159;SDS011;27404;52.398;9.646;2024-02-21T02:25:58;32.40;;;15.77;;
8159;SDS011;27404;52.398;9.646;2024-02-21T02:28:26;31.00;;;15.03;;
8159;SDS011;27404;52.398;9.646;2024-02-21T02:30:52;30.53;;;16.07;;
8159;SDS011;27404;52.398;9.646;2024-02-21T02:33:18;25.70;;;15.03;;
8159;SDS011;27404;52.398;9.646;2024-02-21T02:35:43;32.07;;;15.60;;
8159;SDS011;27404;52.398;9.646;2024-02-21T02:38:09;26.07;;;15.00;;
8159;SDS011;27404;52.398;9.646;2024-02-21T02:40:37;27.20;;;15.90;;
8159;SDS011;27404;52.398;9.646;2024-02-21T02:43:03;33.90;;;15.73;;
8159;SDS011;27404;52.398;9.646;2024-02-21T02:45:29;28.03;;;15.90;;
8159;SDS011;27404;52.398;9.646;2024-02-21T02:47:54;28.13;;;15.57;;
8159;SDS011;27404;52.398;9.646;2024-02-21T02:50:22;28.10;;;15.90;;
8159;SDS011;27404;52.398;9.646;2024-02-21T02:52:51;31.63;;;15.53;;
8159;SDS011;27404;52.398;9.646;2024-02-21T02:55:16;23.73;;;14.93;;
8159;SDS011;27404;52.398;9.646;2024-02-21T02:57:43;27.73;;;15.17;;
8159;SDS011;27404;52.398;9.646;2024-02-21T03:00:10;29.07;;;15.67;;
8159;SDS011;27404;52.398;9.646;2024-02-21T03:02:37;27.67;;;15.10;;
8159;SDS011;27404;52.398;9.646;2024-02-21T03:05:09;30.13;;;16.03;;
8159;SDS011;27404;52.398;9.646;2024-02-21T03:07:38;27.90;;;16.13;;
8159;SDS011;27404;52.398;9.646;2024-02-21T03:10:04;25.57;;;14.60;;
8159;SDS011;27404;52.398;9.646;2024-02-21T03:12:29;32.93;;;16.03;;
8159;SDS011;27404;52.398;9.646;2024-02-21T03:14:55;25.30;;;14.70;;
8159;SDS011;27404;52.398;9.646;2024-02-21T03:17:21;31.53;;;15.27;;
8159;SDS011;27404;52.398;9.646;2024-02-21T03:19:46;27.93;;;15.20;;
8159;SDS011;27404;52.398;9.646;2024-02-21T03:22:13;24.60;;;15.13;;
8159;SDS011;27404;52.398;9.646;2024-02-21T03:24:39;31.87;;;16.13;;
8159;SDS011;27404;52.398;9.646;2024-02-21T03:27:04;25.90;;;15.60;;
8159;SDS011;27404;52.398;9.646;2024-02-21T03:29:29;25.37;;;13.97;;
8159;SDS011;27404;52.398;9.646;2024-02-21T03:31:55;29.23;;;15.43;;
8159;SDS011;27404;52.398;9.646;2024-02-21T03:34:20;28.87;;;15.57;;
8159;SDS011;27404;52.398;9.646;2024-02-21T03:36:46;26.13;;;14.60;;
8159;SDS011;27404;52.398;9.646;2024-02-21T03:39:11;29.17;;;14.00;;
8159;SDS011;27404;52.398;9.646;2024-02-21T03:41:37;27.97;;;14.30;;
8159;SDS011;27404;52.398;9.646;2024-02-21T03:44:02;30.00;;;14.83;;
8159;SDS011;27404;52.398;9.646;2024-02-21T03:46:27;29.73;;;15.17;;
8159;SDS011;27404;52.398;9.646;2024-02-21T03:48:53;33.20;;;14.80;;
8159;SDS011;27404;52.398;9.646;2024-02-21T03:51:18;27.13;;;15.97;;
8159;SDS011;27404;52.398;9.646;2024-02-21T03:53:44;28.63;;;15.13;;
8159;SDS011;27404;52.398;9.646;2024-02-21T03:56:10;28.63;;;14.73;;
8159;SDS011;27404;52.398;9.646;2024-02-21T03:58:35;25.03;;;14.53;;
8159;SDS011;27404;52.398;9.646;2024-02-21T04:01:00;28.83;;;14.87;;
8159;SDS011;27404;52.398;9.646;2024-02-21T04:03:27;28.47;;;14.93;;
8159;SDS011;27404;52.398;9.646;2024-02-21T04:05:52;30.97;;;14.97;;
8159;SDS011;27404;52.398;9.646;2024-02-21T04:08:18;29.67;;;15.03;;
8159;SDS011;27404;52.398;9.646;2024-02-21T04:10:43;30.30;;;16.10;;
8159;SDS011;27404;52.398;9.646;2024-02-21T04:13:09;34.10;;;14.63;;
8159;SDS011;27404;52.398;9.646;2024-02-21T04:15:35;29.97;;;15.63;;
8159;SDS011;27404;52.398;9.646;2024-02-21T04:18:00;27.73;;;14.70;;
8159;SDS011;27404;52.398;9.646;2024-02-21T04:20:26;36.87;;;16.27;;
8159;SDS011;27404;52.398;9.646;2024-02-21T04:22:51;27.13;;;14.10;;
8159;SDS011;27404;52.398;9.646;2024-02-21T04:25:17;26.50;;;15.10;;
8159;SDS011;27404;52.398;9.646;2024-02-21T04:27:42;25.87;;;14.73;;
8159;SDS011;27404;52.398;9.646;2024-02-21T04:30:08;26.70;;;13.87;;
8159;SDS011;27404;52.398;9.646;2024-02-21T04:32:34;28.30;;;14.97;;
8159;SDS011;27404;52.398;9.646;2024-02-21T04:35:00;27.90;;;16.97;;
8159;SDS011;27404;52.398;9.646;2024-02-21T04:37:25;27.43;;;14.50;;
8159;SDS011;27404;52.398;9.646;2024-02-21T04:39:51;28.97;;;16.03;;
8159;SDS011;27404;52.398;9.646;2024-02-21T04:42:16;26.97;;;14.00;;
8159;SDS011;27404;52.398;9.646;2024-02-21T04:44:42;27.30;;;15.07;;
8159;SDS011;27404;52.398;9.646;2024-02-21T04:47:08;31.43;;;15.47;;
8159;SDS011;27404;52.398;9.646;2024-02-21T04:49:33;28.23;;;14.93;;
8159;SDS011;27404;52.398;9.646;2024-02-21T04:52:00;27.83;;;15.43;;
8159;SDS011;27404;52.398;9.646;2024-02-21T04:54:25;26.87;;;15.33;;
8159;SDS011;27404;52.398;9.646;2024-02-21T04:56:51;26.77;;;14.83;;
8159;SDS011;27404;52.398;9.646;2024-02-21T04:59:17;34.57;;;17.63;;
8159;SDS011;27404;52.398;9.646;2024-02-21T05:01:42;26.73;;;14.90;;
8159;SDS011;27404;52.398;9.646;2024-02-21T05:04:08;26.53;;;14.70;;
8159;SDS011;27404;52.398;9.646;2024-02-21T05:06:40;25.50;;;15.40;;
8159;SDS011;27404;52.398;9.646;2024-02-21T05:09:06;31.90;;;16.10;;
8159;SDS011;27404;52.398;9.646;2024-02-21T05:11:33;29.10;;;15.20;;
8159;SDS011;27404;52.398;9.646;2024-02-21T05:13:59;31.73;;;17.30;;
8159;SDS011;27404;52.398;9.646;2024-02-21T05:16:25;30.73;;;16.13;;
8159;SDS011;27404;52.398;9.646;2024-02-21T05:18:50;31.10;;;16.27;;
8159;SDS011;27404;52.398;9.646;2024-02-21T05:21:16;28.57;;;17.40;;
8159;SDS011;27404;52.398;9.646;2024-02-21T05:23:41;30.73;;;16.87;;
8159;SDS011;27404;52.398;9.646;2024-02-21T05:26:06;30.33;;;15.87;;
8159;SDS011;27404;52.398;9.646;2024-02-21T05:28:32;27.90;;;15.20;;
8159;SDS011;27404;52.398;9.646;2024-02-21T05:30:58;28.17;;;15.40;;
8159;SDS011;27404;52.398;9.646;2024-02-21T05:33:24;31.13;;;17.27;;
8159;SDS011;27404;52.398;9.646;2024-02-21T05:35:50;25.03;;;14.93;;
8159;SDS011;27404;52.398;9.646;2024-02-21T05:38:15;29.40;;;15.17;;
8159;SDS011;27404;52.398;9.646;2024-02-21T05:40:41;30.87;;;16.83;;
8159;SDS011;27404;52.398;9.646;2024-02-21T05:43:07;29.50;;;15.33;;
8159;SDS011;27404;52.398;9.646;2024-02-21T05:45:33;33.30;;;15.57;;
8159;SDS011;27404;52.398;9.646;2024-02-21T05:47:58;29.83;;;15.67;;
8159;SDS011;27404;52.398;9.646;2024-02-21T05:50:23;35.30;;;17.00;;
8159;SDS011;27404;52.398;9.646;2024-02-21T05:52:52;32.17;;;16.80;;
8159;SDS011;27404;52.398;9.646;2024-02-21T05:55:19;29.23;;;15.47;;
8159;SDS011;27404;52.398;9.646;2024-02-21T05:57:44;29.57;;;16.87;;
8159;SDS011;27404;52.398;9.646;2024-02-21T06:00:10;27.77;;;16.03;;
8159;SDS011;27404;52.398;9.646;2024-02-21T06:02:35;32.30;;;17.00;;
8159;SDS011;27404;52.398;9.646;2024-02-21T06:05:01;34.27;;;16.10;;
8159;SDS011;27404;52.398;9.646;2024-02-21T06:07:26;31.43;;;17.43;;
8159;SDS011;27404;52.398;9.646;2024-02-21T06:09:52;28.40;;;17.13;;
8159;SDS011;27404;52.398;9.646;2024-02-21T06:12:17;30.93;;;16.80;;
8159;SDS011;27404;52.398;9.646;2024-02-21T06:14:43;27.67;;;16.83;;
8159;SDS011;27404;52.398;9.646;2024-02-21T06:17:08;31.17;;;17.20;;
8159;SDS011;27404;52.398;9.646;2024-02-21T06:19:34;37.60;;;18.23;;
8159;SDS011;27404;52.398;9.646;2024-02-21T06:21:59;30.67;;;16.30;;
8159;SDS011;27404;52.398;9.646;2024-02-21T06:24:24;31.83;;;16.83;;
8159;SDS011;27404;52.398;9.646;2024-02-21T06:26:50;31.47;;;16.77;;
8159;SDS011;27404;52.398;9.646;2024-02-21T06:29:15;31.63;;;16.77;;
8159;SDS011;27404;52.398;9.646;2024-02-21T06:31:41;31.10;;;18.00;;
8159;SDS011;27404;52.398;9.646;2024-02-21T06:34:06;29.83;;;15.37;;
8159;SDS011;27404;52.398;9.646;2024-02-21T06:36:32;26.93;;;16.33;;
8159;SDS011;27404;52.398;9.646;2024-02-21T06:38:58;29.40;;;16.13;;
8159;SDS011;27404;52.398;9.646;2024-02-21T06:41:23;29.43;;;16.70;;
8159;SDS011;27404;52.398;9.646;2024-02-21T06:43:49;26.87;;;15.50;;
8159;SDS011;27404;52.398;9.646;2024-02-21T06:46:27;27.70;;;15.80;;
8159;SDS011;27404;52.398;9.646;2024-02-21T06:48:58;26.87;;;14.83;;
8159;SDS011;27404;52.398;9.646;2024-02-21T06:51:25;26.47;;;14.70;;
8159;SDS011;27404;52.398;9.646;2024-02-21T06:53:52;26.73;;;15.57;;
8159;SDS011;27404;52.398;9.646;2024-02-21T06:56:18;32.23;;;16.20;;
8159;SDS011;27404;52.398;9.646;2024-02-21T06:58:44;30.63;;;15.87;;
8159;SDS011;27404;52.398;9.646;2024-02-21T07:01:09;28.13;;;15.60;;
8159;SDS011;27404;52.398;9.646;2024-02-21T07:03:35;28.87;;;16.67;;
8159;SDS011;27404;52.398;9.646;2024-02-21T07:06:00;27.17;;;16.07;;
8159;SDS011;27404;52.398;9.646;2024-02-21T07:08:26;24.67;;;16.23;;
8159;SDS011;27404;52.398;9.646;2024-02-21T07:10:51;29.37;;;15.67;;
8159;SDS011;27404;52.398;9.646;2024-02-21T07:13:17;29.83;;;15.40;;
8159;SDS011;27404;52.398;9.646;2024-02-21T07:15:42;25.63;;;15.27;;
8159;SDS011;27404;52.398;9.646;2024-02-21T07:18:08;31.00;;;16.47;;
8159;SDS011;27404;52.398;9.646;2024-02-21T07:20:33;25.00;;;14.70;;
8159;SDS011;27404;52.398;9.646;2024-02-21T07:23:01;25.17;;;15.07;;
8159;SDS011;27404;52.398;9.646;2024-02-21T07:25:27;27.50;;;14.10;;
8159;SDS011;27404;52.398;9.646;2024-02-21T07:27:52;24.50;;;15.00;;
8159;SDS011;27404;52.398;9.646;2024-02-21T07:30:18;30.33;;;15.80;;
8159;SDS011;27404;52.398;9.646;2024-02-21T07:32:43;27.97;;;16.17;;
8159;SDS011;27404;52.398;9.646;2024-02-21T07:35:09;27.73;;;15.57;;
8159;SDS011;27404;52.398;9.646;2024-02-21T07:37:36;26.27;;;15.10;;
8159;SDS011;27404;52.398;9.646;2024-02-21T07:40:04;28.30;;;15.33;;
8159;SDS011;27404;52.398;9.646;2024-02-21T07:42:30;26.70;;;13.93;;
8159;SDS011;27404;52.398;9.646;2024-02-21T07:44:56;25.27;;;14.03;;
8159;SDS011;27404;52.398;9.646;2024-02-21T07:47:22;24.33;;;13.53;;
8159;SDS011;27404;52.398;9.646;2024-02-21T07:49:47;33.37;;;15.30;;
8159;SDS011;27404;52.398;9.646;2024-02-21T07:52:14;25.27;;;14.13;;
8159;SDS011;27404;52.398;9.646;2024-02-21T07:54:39;24.93;;;13.70;;
8159;SDS011;27404;52.398;9.646;2024-02-21T07:57:06;23.50;;;13.67;;
8159;SDS011;27404;52.398;9.646;2024-02-21T07:59:32;25.00;;;13.33;;
8159;SDS011;27404;52.398;9.646;2024-02-21T08:01:58;21.73;;;12.80;;
8159;SDS011;27404;52.398;9.646;2024-02-21T08:04:23;26.87;;;13.67;;
8159;SDS011;27404;52.398;9.646;2024-02-21T08:06:52;27.67;;;13.70;;
8159;SDS011;27404;52.398;9.646;2024-02-21T08:09:24;25.93;;;13.47;;
8159;SDS011;27404;52.398;9.646;2024-02-21T08:11:49;26.03;;;13.73;;
8159;SDS011;27404;52.398;9.646;2024-02-21T08:14:15;24.10;;;12.97;;
8159;SDS011;27404;52.398;9.646;2024-02-21T08:16:41;24.67;;;13.50;;
8159;SDS011;27404;52.398;9.646;2024-02-21T08:19:07;26.07;;;13.47;;
8159;SDS011;27404;52.398;9.646;2024-02-21T08:21:33;26.43;;;13.03;;
8159;SDS011;27404;52.398;9.646;2024-02-21T08:23:58;24.60;;;13.57;;
8159;SDS011;27404;52.398;9.646;2024-02-21T08:26:23;25.13;;;12.90;;
8159;SDS011;27404;52.398;9.646;2024-02-21T08:28:52;21.57;;;12.47;;
8159;SDS011;27404;52.398;9.646;2024-02-21T08:31:18;22.93;;;12.90;;
8159;SDS011;27404;52.398;9.646;2024-02-21T08:33:45;21.80;;;11.87;;
8159;SDS011;27404;52.398;9.646;2024-02-21T08:36:16;28.60;;;12.87;;
8159;SDS011;27404;52.398;9.646;2024-02-21T08:38:45;23.43;;;12.50;;
8159;SDS011;27404;52.398;9.646;2024-02-21T08:41:11;19.77;;;12.20;;
8159;SDS011;27404;52.398;9.646;2024-02-21T08:43:37;21.53;;;11.77;;
8159;SDS011;27404;52.398;9.646;2024-02-21T08:46:02;18.53;;;11.07;;
8159;SDS011;27404;52.398;9.646;2024-02-21T08:48:28;21.40;;;12.10;;
8159;SDS011;27404;52.398;9.646;2024-02-21T08:50:53;18.33;;;11.00;;
8159;SDS011;27404;52.398;9.646;2024-02-21T08:53:19;21.03;;;10.20;;
8159;SDS011;27404;52.398;9.646;2024-02-21T08:55:45;17.67;;;10.00;;
8159;SDS011;27404;52.398;9.646;2024-02-21T08:58:10;20.83;;;10.47;;
8159;SDS011;27404;52.398;9.646;2024-02-21T09:00:36;14.70;;;9.00;;
8159;SDS011;27404;52.398;9.646;2024-02-21T09:03:02;20.07;;;8.70;;
8159;SDS011;27404;52.398;9.646;2024-02-21T09:05:28;16.30;;;7.97;;
8159;SDS011;27404;52.398;9.646;2024-02-21T09:07:53;14.60;;;7.73;;
8159;SDS011;27404;52.398;9.646;2024-02-21T09:10:19;19.77;;;8.37;;
8159;SDS011;27404;52.398;9.646;2024-02-21T09:12:44;13.37;;;7.50;;
8159;SDS011;27404;52.398;9.646;2024-02-21T09:15:10;14.10;;;7.73;;
8159;SDS011;27404;52.398;9.646;2024-02-21T09:17:35;14.97;;;7.13;;
8159;SDS011;27404;52.398;9.646;2024-02-21T09:20:01;14.27;;;7.27;;
8159;SDS011;27404;52.398;9.646;2024-02-21T09:22:28;13.90;;;7.27;;
8159;SDS011;27404;52.398;9.646;2024-02-21T09:24:54;15.40;;;6.40;;
8159;SDS011;27404;52.398;9.646;2024-02-21T09:27:20;12.83;;;6.03;;
8159;SDS011;27404;52.398;9.646;2024-02-21T09:29:45;18.20;;;6.47;;
8159;SDS011;27404;52.398;9.646;2024-02-21T09:32:11;13.13;;;6.60;;
8159;SDS011;27404;52.398;9.646;2024-02-21T09:34:37;13.23;;;5.70;;
8159;SDS011;27404;52.398;9.646;2024-02-21T09:37:03;10.23;;;5.53;;
8159;SDS011;27404;52.398;9.646;2024-02-21T09:39:28;12.60;;;5.80;;
8159;SDS011;27404;52.398;9.646;2024-02-21T09:41:57;9.50;;;5.03;;
8159;SDS011;27404;52.398;9.646;2024-02-21T09:44:30;12.80;;;5.47;;
8159;SDS011;27404;52.398;9.646;2024-02-21T09:47:06;13.90;;;5.60;;
8159;SDS011;27404;52.398;9.646;2024-02-21T09:49:35;9.60;;;5.03;;
8159;SDS011;27404;52.398;9.646;2024-02-21T09:52:04;11.23;;;5.07;;
8159;SDS011;27404;52.398;9.646;2024-02-21T09:54:32;14.23;;;5.40;;
8159;SDS011;27404;52.398;9.646;2024-02-21T09:57:04;9.17;;;4.77;;
8159;SDS011;27404;52.398;9.646;2024-02-21T09:59:31;11.33;;;4.90;;
8159;SDS011;27404;52.398;9.646;2024-02-21T10:01:58;12.33;;;5.47;;
8159;SDS011;27404;52.398;9.646;2024-02-21T10:04:26;10.63;;;5.20;;
8159;SDS011;27404;52.398;9.646;2024-02-21T10:06:53;11.07;;;4.60;;
8159;SDS011;27404;52.398;9.646;2024-02-21T10:09:23;8.07;;;4.60;;
8159;SDS011;27404;52.398;9.646;2024-02-21T10:11:55;10.43;;;4.90;;
8159;SDS011;27404;52.398;9.646;2024-02-21T10:14:21;11.37;;;5.00;;
8159;SDS011;27404;52.398;9.646;2024-02-21T10:16:48;11.20;;;4.73;;
8159;SDS011;27404;52.398;9.646;2024-02-21T10:19:20;8.90;;;4.13;;
8159;SDS011;27404;52.398;9.646;2024-02-21T10:22:01;9.93;;;4.43;;
8159;SDS011;27404;52.398;9.646;2024-02-21T10:24:29;9.17;;;4.37;;
8159;SDS011;27404;52.398;9.646;2024-02-21T10:29:27;8.80;;;4.03;;
8159;SDS011;27404;52.398;9.646;2024-02-21T10:31:52;12.80;;;5.03;;
8159;SDS011;27404;52.398;9.646;2024-02-21T10:34:38;11.67;;;3.60;;
8159;SDS011;27404;52.398;9.646;2024-02-21T10:37:05;10.87;;;3.70;;
8159;SDS011;27404;52.398;9.646;2024-02-21T10:39:32;9.27;;;3.90;;
8159;SDS011;27404;52.398;9.646;2024-02-21T10:42:02;10.83;;;3.70;;
8159;SDS011;27404;52.398;9.646;2024-02-21T10:44:29;12.37;;;3.80;;
8159;SDS011;27404;52.398;9.646;2024-02-21T10:46:57;8.70;;;3.50;;
8159;SDS011;27404;52.398;9.646;2024-02-21T10:49:24;7.00;;;3.47;;
8159;SDS011;27404;52.398;9.646;2024-02-21T10:51:50;6.43;;;3.13;;
8159;SDS011;27404;52.398;9.646;2024-02-21T10:54:27;8.50;;;3.53;;
8159;SDS011;27404;52.398;9.646;2024-02-21T10:57:03;9.53;;;3.70;;
8159;SDS011;27404;52.398;9.646;2024-02-21T10:59:30;6.03;;;3.10;;
8159;SDS011;27404;52.398;9.646;2024-02-21T11:01:57;8.53;;;3.10;;
8159;SDS011;27404;52.398;9.646;2024-02-21T11:04:23;8.13;;;2.93;;
8159;SDS011;27404;52.398;9.646;2024-02-21T11:06:49;7.90;;;3.20;;
8159;SDS011;27404;52.398;9.646;2024-02-21T11:09:16;7.37;;;2.57;;
8159;SDS011;27404;52.398;9.646;2024-02-21T11:11:43;5.93;;;2.77;;
8159;SDS011;27404;52.398;9.646;2024-02-21T11:14:19;5.97;;;2.40;;
8159;SDS011;27404;52.398;9.646;2024-02-21T11:16:45;6.90;;;2.50;;
8159;SDS011;27404;52.398;9.646;2024-02-21T11:19:21;7.87;;;2.33;;
8159;SDS011;27404;52.398;9.646;2024-02-21T11:21:48;4.40;;;2.47;;
8159;SDS011;27404;52.398;9.646;2024-02-21T11:24:25;6.47;;;2.40;;
8159;SDS011;27404;52.398;9.646;2024-02-21T11:26:52;7.80;;;2.70;;
8159;SDS011;27404;52.398;9.646;2024-02-21T11:29:22;9.90;;;2.90;;
8159;SDS011;27404;52.398;9.646;2024-02-21T11:31:49;5.80;;;2.63;;
8159;SDS011;27404;52.398;9.646;2024-02-21T11:34:17;5.00;;;2.23;;
8159;SDS011;27404;52.398;9.646;2024-02-21T11:36:47;7.93;;;2.50;;
8159;SDS011;27404;52.398;9.646;2024-02-21T11:39:23;6.30;;;2.30;;
8159;SDS011;27404;52.398;9.646;2024-02-21T11:42:06;6.07;;;2.57;;
8159;SDS011;27404;52.398;9.646;2024-02-21T11:44:36;5.80;;;2.20;;
8159;SDS011;27404;52.398;9.646;2024-02-21T11:47:07;5.10;;;2.43;;
8159;SDS011;27404;52.398;9.646;2024-02-21T11:49:37;6.73;;;2.20;;
8159;SDS011;27404;52.398;9.646;2024-02-21T11:52:04;5.87;;;2.60;;
8159;SDS011;27404;52.398;9.646;2024-02-21T11:54:30;3.77;;;1.80;;
8159;SDS011;27404;52.398;9.646;2024-02-21T11:56:56;4.47;;;2.03;;
8159;SDS011;27404;52.398;9.646;2024-02-21T11:59:22;5.47;;;2.10;;
8159;SDS011;27404;52.398;9.646;2024-02-21T12:01:48;3.83;;;2.00;;
8159;SDS011;27404;52.398;9.646;2024-02-21T12:04:15;2.87;;;1.70;;
8159;SDS011;27404;52.398;9.646;2024-02-21T12:06:43;4.90;;;2.20;;
8159;SDS011;27404;52.398;9.646;2024-02-21T12:09:09;6.37;;;2.60;;
8159;SDS011;27404;52.398;9.646;2024-02-21T12:11:39;6.03;;;2.73;;
8159;SDS011;27404;52.398;9.646;2024-02-21T12:14:05;2.83;;;2.07;;
8159;SDS011;27404;52.398;9.646;2024-02-21T12:16:30;6.20;;;2.33;;
8159;SDS011;27404;52.398;9.646;2024-02-21T12:18:57;6.17;;;2.87;;
8159;SDS011;27404;52.398;9.646;2024-02-21T12:21:24;8.37;;;3.20;;
8159;SDS011;27404;52.398;9.646;2024-02-21T12:23:51;8.17;;;3.27;;
8159;SDS011;27404;52.398;9.646;2024-02-21T12:26:16;11.50;;;3.73;;
8159;SDS011;27404;52.398;9.646;2024-02-21T12:28:41;6.40;;;3.20;;
8159;SDS011;27404;52.398;9.646;2024-02-21T12:31:07;9.23;;;3.97;;
8159;SDS011;27404;52.398;9.646;2024-02-21T12:33:32;4.93;;;3.60;;
8159;SDS011;27404;52.398;9.646;2024-02-21T12:35:58;9.43;;;4.27;;
8159;SDS011;27404;52.398;9.646;2024-02-21T12:38:23;8.67;;;4.10;;
8159;SDS011;27404;52.398;9.646;2024-02-21T12:40:49;11.07;;;4.90;;
8159;SDS011;27404;52.398;9.646;2024-02-21T12:43:15;9.07;;;4.47;;
8159;SDS011;27404;52.398;9.646;2024-02-21T12:45:40;9.73;;;4.50;;
8159;SDS011;27404;52.398;9.646;2024-02-21T12:48:06;9.37;;;4.13;;
8159;SDS011;27404;52.398;9.646;2024-02-21T12:50:31;9.40;;;4.37;;
8159;SDS011;27404;52.398;9.646;2024-02-21T12:52:57;13.33;;;4.13;;
8159;SDS011;27404;52.398;9.646;2024-02-21T12:55:23;10.07;;;4.57;;
8159;SDS011;27404;52.398;9.646;2024-02-21T12:57:49;10.30;;;5.33;;
8159;SDS011;27404;52.398;9.646;2024-02-21T13:00:14;11.30;;;4.30;;
8159;SDS011;27404;52.398;9.646;2024-02-21T13:02:40;11.60;;;5.47;;
8159;SDS011;27404;52.398;9.646;2024-02-21T13:05:06;7.87;;;4.83;;
8159;SDS011;27404;52.398;9.646;2024-02-21T13:07:32;9.17;;;4.60;;
8159;SDS011;27404;52.398;9.646;2024-02-21T13:09:58;12.03;;;4.90;;
8159;SDS011;27404;52.398;9.646;2024-02-21T13:12:23;10.27;;;5.23;;
8159;SDS011;27404;52.398;9.646;2024-02-21T13:14:51;12.10;;;4.90;;
8159;SDS011;27404;52.398;9.646;2024-02-21T13:17:16;7.60;;;4.60;;
8159;SDS011;27404;52.398;9.646;2024-02-21T13:19:42;8.70;;;5.07;;
8159;SDS011;27404;52.398;9.646;2024-02-21T13:22:07;8.63;;;4.90;;
8159;SDS011;27404;52.398;9.646;2024-02-21T13:24:33;12.47;;;5.03;;
8159;SDS011;27404;52.398;9.646;2024-02-21T13:26:59;9.17;;;4.73;;
8159;SDS011;27404;52.398;9.646;2024-02-21T13:29:24;11.00;;;4.93;;
8159;SDS011;27404;52.398;9.646;2024-02-21T13:31:49;8.87;;;5.07;;
8159;SDS011;27404;52.398;9.646;2024-02-21T13:34:15;9.00;;;4.83;;
8159;SDS011;27404;52.398;9.646;2024-02-21T13:36:42;9.20;;;4.23;;
8159;SDS011;27404;52.398;9.646;2024-02-21T13:39:07;7.70;;;4.10;;
8159;SDS011;27404;52.398;9.646;2024-02-21T13:41:33;9.77;;;4.10;;
8159;SDS011;27404;52.398;9.646;2024-02-21T13:43:59;6.33;;;3.57;;
8159;SDS011;27404;52.398;9.646;2024-02-21T13:46:28;7.13;;;3.47;;
8159;SDS011;27404;52.398;9.646;2024-02-21T13:48:54;7.60;;;3.07;;
8159;SDS011;27404;52.398;9.646;2024-02-21T13:51:29;8.63;;;3.40;;
8159;SDS011;27404;52.398;9.646;2024-02-21T13:53:55;6.60;;;3.27;;
8159;SDS011;27404;52.398;9.646;2024-02-21T13:56:20;6.43;;;3.23;;
8159;SDS011;27404;52.398;9.646;2024-02-21T13:58:45;6.97;;;2.80;;
8159;SDS011;27404;52.398;9.646;2024-02-21T14:01:11;8.03;;;2.90;;
8159;SDS011;27404;52.398;9.646;2024-02-21T14:03:36;5.33;;;2.70;;
8159;SDS011;27404;52.398;9.646;2024-02-21T14:06:02;7.37;;;2.57;;
8159;SDS011;27404;52.398;9.646;2024-02-21T14:08:27;6.73;;;2.90;;
8159;SDS011;27404;52.398;9.646;2024-02-21T14:10:54;6.60;;;2.80;;
8159;SDS011;27404;52.398;9.646;2024-02-21T14:13:20;5.87;;;2.60;;
8159;SDS011;27404;52.398;9.646;2024-02-21T14:15:46;6.13;;;2.87;;
8159;SDS011;27404;52.398;9.646;2024-02-21T14:18:13;5.43;;;2.60;;
8159;SDS011;27404;52.398;9.646;2024-02-21T14:20:39;9.43;;;3.17;;
8159;SDS011;27404;52.398;9.646;2024-02-21T14:23:04;6.20;;;2.63;;
8159;SDS011;27404;52.398;9.646;2024-02-21T14:25:30;5.13;;;2.70;;
8159;SDS011;27404;52.398;9.646;2024-02-21T14:27:55;7.30;;;2.13;;
8159;SDS011;27404;52.398;9.646;2024-02-21T14:30:20;5.90;;;2.70;;
8159;SDS011;27404;52.398;9.646;2024-02-21T14:32:46;6.83;;;2.43;;
8159;SDS011;27404;52.398;9.646;2024-02-21T14:35:11;6.27;;;2.47;;
8159;SDS011;27404;52.398;9.646;2024-02-21T14:37:37;5.23;;;2.20;;
8159;SDS011;27404;52.398;9.646;2024-02-21T14:40:02;5.20;;;1.97;;
8159;SDS011;27404;52.398;9.646;2024-02-21T14:42:28;5.63;;;2.13;;